sensor_id;sensor_type;location;lat;lon;timestamp;P1;durP1;ratioP1;P2;durP2;ratioP2
21392;SDS011;10857;52.228;21.026;2022-08-03T00:02:14;15.57;;;11.73;;
21392;SDS011;10857;52.228;21.026;2022-08-03T00:04:42;15.43;;;10.88;;
21392;SDS011;10857;52.228;21.026;2022-08-03T00:07:09;17.05;;;11.40;;
21392;SDS011;10857;52.228;21.026;2022-08-03T00:09:35;13.57;;;10.23;;
21392;SDS011;10857;52.228;21.026;2022-08-03T00:12:02;16.30;;;10.65;;
21392;SDS011;10857;52.228;21.026;2022-08-03T00:14:29;13.73;;;10.75;;
21392;SDS011;10857;52.228;21.026;2022-08-03T00:16:56;16.35;;;10.75;;
21392;SDS011;10857;52.228;21.026;2022-08-03T00:19:23;16.80;;;10.52;;
21392;SDS011;10857;52.228;21.026;2022-08-03T00:21:52;16.27;;;11.00;;
21392;SDS011;10857;52.228;21.026;2022-08-03T00:24:19;16.98;;;10.50;;
21392;SDS011;10857;52.228;21.026;2022-08-03T00:26:46;16.92;;;10.98;;
21392;SDS011;10857;52.228;21.026;2022-08-03T00:29:13;16.60;;;11.68;;
21392;SDS011;10857;52.228;21.026;2022-08-03T00:31:40;15.65;;;10.85;;
21392;SDS011;10857;52.228;21.026;2022-08-03T00:34:18;17.25;;;11.15;;
21392;SDS011;10857;52.228;21.026;2022-08-03T00:37:00;12.63;;;10.10;;
21392;SDS011;10857;52.228;21.026;2022-08-03T00:39:27;14.23;;;10.75;;
21392;SDS011;10857;52.228;21.026;2022-08-03T00:41:54;16.25;;;11.00;;
21392;SDS011;10857;52.228;21.026;2022-08-03T00:44:20;13.68;;;10.07;;
21392;SDS011;10857;52.228;21.026;2022-08-03T00:46:47;15.50;;;10.43;;
21392;SDS011;10857;52.228;21.026;2022-08-03T00:49:14;14.75;;;10.98;;
21392;SDS011;10857;52.228;21.026;2022-08-03T00:51:41;15.73;;;10.80;;
21392;SDS011;10857;52.228;21.026;2022-08-03T00:54:08;15.65;;;10.90;;
21392;SDS011;10857;52.228;21.026;2022-08-03T00:56:35;17.63;;;10.80;;
21392;SDS011;10857;52.228;21.026;2022-08-03T00:59:03;19.17;;;11.77;;
21392;SDS011;10857;52.228;21.026;2022-08-03T01:01:30;16.08;;;11.40;;
21392;SDS011;10857;52.228;21.026;2022-08-03T01:03:58;15.52;;;11.23;;
21392;SDS011;10857;52.228;21.026;2022-08-03T01:06:30;19.70;;;11.25;;
21392;SDS011;10857;52.228;21.026;2022-08-03T01:09:06;15.13;;;10.85;;
21392;SDS011;10857;52.228;21.026;2022-08-03T01:18:11;16.20;;;11.27;;
21392;SDS011;10857;52.228;21.026;2022-08-03T01:20:42;14.90;;;11.55;;
21392;SDS011;10857;52.228;21.026;2022-08-03T01:32:33;15.18;;;11.48;;
21392;SDS011;10857;52.228;21.026;2022-08-03T01:35:25;14.15;;;11.20;;
21392;SDS011;10857;52.228;21.026;2022-08-03T01:38:11;14.82;;;11.43;;
21392;SDS011;10857;52.228;21.026;2022-08-03T01:40:41;14.02;;;11.52;;
21392;SDS011;10857;52.228;21.026;2022-08-03T01:43:12;15.02;;;11.75;;
21392;SDS011;10857;52.228;21.026;2022-08-03T01:46:02;14.95;;;11.90;;
21392;SDS011;10857;52.228;21.026;2022-08-03T01:48:32;17.58;;;12.60;;
21392;SDS011;10857;52.228;21.026;2022-08-03T01:51:01;17.88;;;11.95;;
21392;SDS011;10857;52.228;21.026;2022-08-03T01:53:30;18.80;;;11.93;;
21392;SDS011;10857;52.228;21.026;2022-08-03T01:55:59;16.08;;;12.10;;
21392;SDS011;10857;52.228;21.026;2022-08-03T01:58:29;18.55;;;11.32;;
21392;SDS011;10857;52.228;21.026;2022-08-03T02:00:57;15.05;;;11.60;;
21392;SDS011;10857;52.228;21.026;2022-08-03T02:03:29;13.75;;;11.65;;
21392;SDS011;10857;52.228;21.026;2022-08-03T02:05:59;16.40;;;12.13;;
21392;SDS011;10857;52.228;21.026;2022-08-03T02:08:48;17.13;;;11.68;;
21392;SDS011;10857;52.228;21.026;2022-08-03T02:11:17;16.60;;;12.35;;
21392;SDS011;10857;52.228;21.026;2022-08-03T02:13:45;16.63;;;13.48;;
21392;SDS011;10857;52.228;21.026;2022-08-03T02:16:13;16.17;;;13.43;;
21392;SDS011;10857;52.228;21.026;2022-08-03T02:18:40;19.75;;;12.90;;
21392;SDS011;10857;52.228;21.026;2022-08-03T02:21:08;23.10;;;13.75;;
21392;SDS011;10857;52.228;21.026;2022-08-03T02:23:57;17.83;;;12.77;;
21392;SDS011;10857;52.228;21.026;2022-08-03T02:26:24;19.88;;;12.05;;
21392;SDS011;10857;52.228;21.026;2022-08-03T02:28:58;19.70;;;13.05;;
21392;SDS011;10857;52.228;21.026;2022-08-03T02:31:32;16.35;;;13.05;;
21392;SDS011;10857;52.228;21.026;2022-08-03T02:34:02;19.23;;;13.35;;
21392;SDS011;10857;52.228;21.026;2022-08-03T02:36:36;20.58;;;13.93;;
21392;SDS011;10857;52.228;21.026;2022-08-03T02:39:05;21.63;;;13.23;;
21392;SDS011;10857;52.228;21.026;2022-08-03T02:41:44;20.75;;;13.07;;
21392;SDS011;10857;52.228;21.026;2022-08-03T02:44:16;16.13;;;13.00;;
21392;SDS011;10857;52.228;21.026;2022-08-03T02:46:46;18.05;;;13.00;;
21392;SDS011;10857;52.228;21.026;2022-08-03T02:49:18;16.13;;;12.70;;
21392;SDS011;10857;52.228;21.026;2022-08-03T02:52:09;18.45;;;13.27;;
21392;SDS011;10857;52.228;21.026;2022-08-03T02:54:43;18.05;;;13.60;;
21392;SDS011;10857;52.228;21.026;2022-08-03T02:57:11;19.83;;;14.27;;
21392;SDS011;10857;52.228;21.026;2022-08-03T02:59:40;17.23;;;13.13;;
21392;SDS011;10857;52.228;21.026;2022-08-03T03:02:11;18.90;;;13.38;;
21392;SDS011;10857;52.228;21.026;2022-08-03T03:04:42;18.23;;;12.60;;
21392;SDS011;10857;52.228;21.026;2022-08-03T03:07:30;17.67;;;12.88;;
21392;SDS011;10857;52.228;21.026;2022-08-03T03:10:17;17.05;;;11.98;;
21392;SDS011;10857;52.228;21.026;2022-08-03T03:12:45;18.65;;;12.57;;
21392;SDS011;10857;52.228;21.026;2022-08-03T03:15:15;19.33;;;12.60;;
21392;SDS011;10857;52.228;21.026;2022-08-03T03:17:42;18.08;;;13.18;;
21392;SDS011;10857;52.228;21.026;2022-08-03T03:20:10;15.60;;;12.50;;
21392;SDS011;10857;52.228;21.026;2022-08-03T03:22:37;19.20;;;12.63;;
21392;SDS011;10857;52.228;21.026;2022-08-03T03:25:10;17.98;;;12.98;;
21392;SDS011;10857;52.228;21.026;2022-08-03T03:27:38;19.30;;;12.88;;
21392;SDS011;10857;52.228;21.026;2022-08-03T03:30:06;16.33;;;12.68;;
21392;SDS011;10857;52.228;21.026;2022-08-03T03:32:33;21.75;;;12.77;;
21392;SDS011;10857;52.228;21.026;2022-08-03T03:35:02;17.20;;;13.00;;
21392;SDS011;10857;52.228;21.026;2022-08-03T03:37:30;17.88;;;12.68;;
21392;SDS011;10857;52.228;21.026;2022-08-03T03:39:57;19.23;;;12.43;;
21392;SDS011;10857;52.228;21.026;2022-08-03T03:42:24;17.13;;;12.10;;
21392;SDS011;10857;52.228;21.026;2022-08-03T03:44:52;14.43;;;11.98;;
21392;SDS011;10857;52.228;21.026;2022-08-03T03:47:20;20.27;;;12.80;;
21392;SDS011;10857;52.228;21.026;2022-08-03T03:49:58;15.40;;;12.88;;
21392;SDS011;10857;52.228;21.026;2022-08-03T03:52:25;16.25;;;12.63;;
21392;SDS011;10857;52.228;21.026;2022-08-03T03:54:52;16.35;;;12.13;;
21392;SDS011;10857;52.228;21.026;2022-08-03T03:57:26;16.08;;;13.07;;
21392;SDS011;10857;52.228;21.026;2022-08-03T03:59:53;17.08;;;12.18;;
21392;SDS011;10857;52.228;21.026;2022-08-03T04:02:20;16.45;;;12.15;;
21392;SDS011;10857;52.228;21.026;2022-08-03T04:04:47;19.27;;;12.65;;
21392;SDS011;10857;52.228;21.026;2022-08-03T04:07:34;16.67;;;12.13;;
21392;SDS011;10857;52.228;21.026;2022-08-03T04:10:30;18.73;;;12.65;;
21392;SDS011;10857;52.228;21.026;2022-08-03T04:13:21;17.33;;;13.57;;
21392;SDS011;10857;52.228;21.026;2022-08-03T04:15:51;21.55;;;12.40;;
21392;SDS011;10857;52.228;21.026;2022-08-03T04:18:21;20.58;;;12.65;;
21392;SDS011;10857;52.228;21.026;2022-08-03T04:20:49;18.67;;;12.77;;
21392;SDS011;10857;52.228;21.026;2022-08-03T04:23:20;18.08;;;13.27;;
21392;SDS011;10857;52.228;21.026;2022-08-03T04:25:49;19.08;;;13.75;;
21392;SDS011;10857;52.228;21.026;2022-08-03T04:28:18;27.67;;;13.60;;
21392;SDS011;10857;52.228;21.026;2022-08-03T04:31:00;16.92;;;13.70;;
21392;SDS011;10857;52.228;21.026;2022-08-03T04:33:32;19.85;;;13.77;;
21392;SDS011;10857;52.228;21.026;2022-08-03T04:36:03;20.27;;;13.98;;
21392;SDS011;10857;52.228;21.026;2022-08-03T04:38:36;19.15;;;14.43;;
21392;SDS011;10857;52.228;21.026;2022-08-03T04:41:06;20.30;;;14.85;;
21392;SDS011;10857;52.228;21.026;2022-08-03T04:43:34;19.63;;;15.10;;
21392;SDS011;10857;52.228;21.026;2022-08-03T04:46:03;18.23;;;14.57;;
21392;SDS011;10857;52.228;21.026;2022-08-03T04:48:32;18.25;;;15.02;;
21392;SDS011;10857;52.228;21.026;2022-08-03T04:51:00;19.65;;;14.73;;
21392;SDS011;10857;52.228;21.026;2022-08-03T04:53:29;19.27;;;15.45;;
21392;SDS011;10857;52.228;21.026;2022-08-03T04:56:02;22.77;;;16.65;;
21392;SDS011;10857;52.228;21.026;2022-08-03T04:58:32;19.20;;;16.13;;
21392;SDS011;10857;52.228;21.026;2022-08-03T05:00:59;18.90;;;16.00;;
21392;SDS011;10857;52.228;21.026;2022-08-03T05:03:26;22.30;;;16.30;;
21392;SDS011;10857;52.228;21.026;2022-08-03T05:05:53;20.33;;;16.30;;
21392;SDS011;10857;52.228;21.026;2022-08-03T05:08:27;20.92;;;16.80;;
21392;SDS011;10857;52.228;21.026;2022-08-03T05:10:55;21.42;;;17.27;;
21392;SDS011;10857;52.228;21.026;2022-08-03T05:13:24;21.15;;;16.67;;
21392;SDS011;10857;52.228;21.026;2022-08-03T05:15:51;26.10;;;16.98;;
21392;SDS011;10857;52.228;21.026;2022-08-03T05:18:18;21.05;;;17.88;;
21392;SDS011;10857;52.228;21.026;2022-08-03T05:20:45;19.95;;;17.92;;
21392;SDS011;10857;52.228;21.026;2022-08-03T05:23:12;24.83;;;18.83;;
21392;SDS011;10857;52.228;21.026;2022-08-03T05:25:39;27.58;;;17.50;;
21392;SDS011;10857;52.228;21.026;2022-08-03T05:28:15;31.02;;;19.58;;
21392;SDS011;10857;52.228;21.026;2022-08-03T05:30:42;25.60;;;19.45;;
21392;SDS011;10857;52.228;21.026;2022-08-03T05:33:11;27.92;;;19.80;;
21392;SDS011;10857;52.228;21.026;2022-08-03T05:35:37;22.50;;;19.60;;
21392;SDS011;10857;52.228;21.026;2022-08-03T05:38:57;21.75;;;19.50;;
21392;SDS011;10857;52.228;21.026;2022-08-03T05:41:28;25.48;;;20.20;;
21392;SDS011;10857;52.228;21.026;2022-08-03T05:44:02;22.80;;;20.27;;
21392;SDS011;10857;52.228;21.026;2022-08-03T05:46:30;26.58;;;20.52;;
21392;SDS011;10857;52.228;21.026;2022-08-03T05:48:57;21.30;;;18.98;;
21392;SDS011;10857;52.228;21.026;2022-08-03T05:51:25;25.50;;;19.90;;
21392;SDS011;10857;52.228;21.026;2022-08-03T05:53:54;27.40;;;19.98;;
21392;SDS011;10857;52.228;21.026;2022-08-03T05:56:23;23.40;;;18.60;;
21392;SDS011;10857;52.228;21.026;2022-08-03T05:59:10;23.35;;;20.67;;
21392;SDS011;10857;52.228;21.026;2022-08-03T06:01:57;25.90;;;19.73;;
21392;SDS011;10857;52.228;21.026;2022-08-03T06:04:30;22.40;;;19.27;;
21392;SDS011;10857;52.228;21.026;2022-08-03T06:06:58;28.10;;;20.90;;
21392;SDS011;10857;52.228;21.026;2022-08-03T06:09:27;21.95;;;19.60;;
21392;SDS011;10857;52.228;21.026;2022-08-03T06:12:18;26.10;;;19.52;;
21392;SDS011;10857;52.228;21.026;2022-08-03T06:14:57;24.15;;;20.38;;
21392;SDS011;10857;52.228;21.026;2022-08-03T06:17:29;25.00;;;19.88;;
21392;SDS011;10857;52.228;21.026;2022-08-03T06:20:03;26.52;;;20.50;;
21392;SDS011;10857;52.228;21.026;2022-08-03T06:22:34;28.25;;;20.92;;
21392;SDS011;10857;52.228;21.026;2022-08-03T06:25:16;23.95;;;20.50;;
21392;SDS011;10857;52.228;21.026;2022-08-03T06:27:49;28.23;;;21.55;;
21392;SDS011;10857;52.228;21.026;2022-08-03T06:30:51;28.15;;;22.65;;
21392;SDS011;10857;52.228;21.026;2022-08-03T06:33:44;28.42;;;21.17;;
21392;SDS011;10857;52.228;21.026;2022-08-03T06:36:34;26.65;;;22.10;;
21392;SDS011;10857;52.228;21.026;2022-08-03T06:39:04;27.13;;;22.65;;
21392;SDS011;10857;52.228;21.026;2022-08-03T06:41:33;27.40;;;22.38;;
21392;SDS011;10857;52.228;21.026;2022-08-03T06:44:13;32.25;;;23.27;;
21392;SDS011;10857;52.228;21.026;2022-08-03T06:46:47;28.25;;;22.35;;
21392;SDS011;10857;52.228;21.026;2022-08-03T06:49:16;29.42;;;24.23;;
21392;SDS011;10857;52.228;21.026;2022-08-03T06:51:43;27.73;;;23.95;;
21392;SDS011;10857;52.228;21.026;2022-08-03T06:54:32;28.30;;;23.50;;
21392;SDS011;10857;52.228;21.026;2022-08-03T06:57:02;28.42;;;21.52;;
21392;SDS011;10857;52.228;21.026;2022-08-03T06:59:35;26.73;;;20.02;;
21392;SDS011;10857;52.228;21.026;2022-08-03T07:02:22;25.58;;;21.52;;
21392;SDS011;10857;52.228;21.026;2022-08-03T07:04:53;24.02;;;20.77;;
21392;SDS011;10857;52.228;21.026;2022-08-03T07:07:21;24.55;;;19.35;;
21392;SDS011;10857;52.228;21.026;2022-08-03T07:09:49;27.67;;;21.05;;
21392;SDS011;10857;52.228;21.026;2022-08-03T07:12:23;25.98;;;20.80;;
21392;SDS011;10857;52.228;21.026;2022-08-03T07:14:56;22.00;;;19.08;;
21392;SDS011;10857;52.228;21.026;2022-08-03T07:17:28;22.95;;;18.58;;
21392;SDS011;10857;52.228;21.026;2022-08-03T07:20:03;24.67;;;20.83;;
21392;SDS011;10857;52.228;21.026;2022-08-03T07:22:34;25.50;;;21.50;;
21392;SDS011;10857;52.228;21.026;2022-08-03T07:25:01;29.02;;;22.83;;
21392;SDS011;10857;52.228;21.026;2022-08-03T07:27:30;27.27;;;22.85;;
21392;SDS011;10857;52.228;21.026;2022-08-03T07:29:58;27.45;;;23.60;;
21392;SDS011;10857;52.228;21.026;2022-08-03T07:32:29;29.00;;;22.88;;
21392;SDS011;10857;52.228;21.026;2022-08-03T07:34:57;27.15;;;23.52;;
21392;SDS011;10857;52.228;21.026;2022-08-03T07:37:28;29.58;;;23.33;;
21392;SDS011;10857;52.228;21.026;2022-08-03T07:39:55;26.58;;;21.75;;
21392;SDS011;10857;52.228;21.026;2022-08-03T07:42:26;29.48;;;22.83;;
21392;SDS011;10857;52.228;21.026;2022-08-03T07:44:55;28.48;;;23.17;;
21392;SDS011;10857;52.228;21.026;2022-08-03T07:47:23;27.52;;;20.98;;
21392;SDS011;10857;52.228;21.026;2022-08-03T07:50:01;28.85;;;22.88;;
21392;SDS011;10857;52.228;21.026;2022-08-03T07:52:28;26.08;;;21.48;;
21392;SDS011;10857;52.228;21.026;2022-08-03T07:55:25;26.48;;;20.83;;
21392;SDS011;10857;52.228;21.026;2022-08-03T07:58:07;30.42;;;21.48;;
21392;SDS011;10857;52.228;21.026;2022-08-03T08:00:37;27.70;;;22.02;;
21392;SDS011;10857;52.228;21.026;2022-08-03T08:03:04;28.67;;;21.52;;
21392;SDS011;10857;52.228;21.026;2022-08-03T08:05:32;29.35;;;22.05;;
21392;SDS011;10857;52.228;21.026;2022-08-03T08:08:00;29.33;;;23.55;;
21392;SDS011;10857;52.228;21.026;2022-08-03T08:10:31;35.78;;;24.23;;
21392;SDS011;10857;52.228;21.026;2022-08-03T08:12:59;30.30;;;23.80;;
21392;SDS011;10857;52.228;21.026;2022-08-03T08:15:27;30.20;;;23.50;;
21392;SDS011;10857;52.228;21.026;2022-08-03T08:17:54;36.75;;;22.30;;
21392;SDS011;10857;52.228;21.026;2022-08-03T08:20:24;30.92;;;21.40;;
21392;SDS011;10857;52.228;21.026;2022-08-03T08:23:01;33.63;;;21.90;;
21392;SDS011;10857;52.228;21.026;2022-08-03T08:25:51;32.60;;;22.80;;
21392;SDS011;10857;52.228;21.026;2022-08-03T08:28:18;25.92;;;20.15;;
21392;SDS011;10857;52.228;21.026;2022-08-03T08:30:58;27.98;;;20.77;;
21392;SDS011;10857;52.228;21.026;2022-08-03T08:33:26;29.35;;;20.77;;
21392;SDS011;10857;52.228;21.026;2022-08-03T08:36:13;23.55;;;17.75;;
21392;SDS011;10857;52.228;21.026;2022-08-03T08:38:42;23.08;;;14.02;;
21392;SDS011;10857;52.228;21.026;2022-08-03T08:41:13;21.40;;;12.40;;
21392;SDS011;10857;52.228;21.026;2022-08-03T08:43:40;19.02;;;10.68;;
21392;SDS011;10857;52.228;21.026;2022-08-03T08:46:11;12.20;;;7.50;;
21392;SDS011;10857;52.228;21.026;2022-08-03T08:48:49;10.05;;;6.10;;
21392;SDS011;10857;52.228;21.026;2022-08-03T08:51:20;7.32;;;5.38;;
21392;SDS011;10857;52.228;21.026;2022-08-03T08:53:51;8.70;;;5.63;;
21392;SDS011;10857;52.228;21.026;2022-08-03T08:56:19;9.98;;;4.82;;
21392;SDS011;10857;52.228;21.026;2022-08-03T08:58:51;6.35;;;5.10;;
21392;SDS011;10857;52.228;21.026;2022-08-03T09:01:22;6.05;;;5.38;;
21392;SDS011;10857;52.228;21.026;2022-08-03T09:03:49;8.25;;;5.10;;
21392;SDS011;10857;52.228;21.026;2022-08-03T09:06:18;8.82;;;6.60;;
21392;SDS011;10857;52.228;21.026;2022-08-03T09:08:51;11.95;;;6.32;;
21392;SDS011;10857;52.228;21.026;2022-08-03T09:11:20;13.13;;;8.32;;
21392;SDS011;10857;52.228;21.026;2022-08-03T09:14:10;12.55;;;8.40;;
21392;SDS011;10857;52.228;21.026;2022-08-03T09:16:58;12.23;;;8.45;;
21392;SDS011;10857;52.228;21.026;2022-08-03T09:19:29;12.32;;;8.18;;
21392;SDS011;10857;52.228;21.026;2022-08-03T09:22:06;13.30;;;9.63;;
21392;SDS011;10857;52.228;21.026;2022-08-03T09:25:00;11.77;;;8.40;;
21392;SDS011;10857;52.228;21.026;2022-08-03T09:27:49;18.02;;;8.30;;
21392;SDS011;10857;52.228;21.026;2022-08-03T09:30:16;13.63;;;8.93;;
21392;SDS011;10857;52.228;21.026;2022-08-03T09:33:07;11.95;;;8.43;;
21392;SDS011;10857;52.228;21.026;2022-08-03T09:35:55;15.57;;;9.50;;
21392;SDS011;10857;52.228;21.026;2022-08-03T09:38:24;12.07;;;8.93;;
21392;SDS011;10857;52.228;21.026;2022-08-03T09:40:55;10.68;;;8.48;;
21392;SDS011;10857;52.228;21.026;2022-08-03T09:43:26;9.60;;;8.23;;
21392;SDS011;10857;52.228;21.026;2022-08-03T09:46:03;13.25;;;8.55;;
21392;SDS011;10857;52.228;21.026;2022-08-03T09:48:36;9.43;;;7.70;;
21392;SDS011;10857;52.228;21.026;2022-08-03T09:51:03;10.98;;;8.57;;
21392;SDS011;10857;52.228;21.026;2022-08-03T09:53:51;12.38;;;9.18;;
21392;SDS011;10857;52.228;21.026;2022-08-03T09:56:44;10.25;;;8.20;;
21392;SDS011;10857;52.228;21.026;2022-08-03T09:59:22;11.20;;;8.48;;
21392;SDS011;10857;52.228;21.026;2022-08-03T10:01:59;12.73;;;8.63;;
21392;SDS011;10857;52.228;21.026;2022-08-03T10:04:27;13.23;;;9.50;;
21392;SDS011;10857;52.228;21.026;2022-08-03T10:07:01;10.57;;;8.20;;
21392;SDS011;10857;52.228;21.026;2022-08-03T10:09:34;10.55;;;8.20;;
21392;SDS011;10857;52.228;21.026;2022-08-03T10:12:09;8.60;;;7.70;;
21392;SDS011;10857;52.228;21.026;2022-08-03T10:14:39;11.25;;;7.88;;
21392;SDS011;10857;52.228;21.026;2022-08-03T10:17:08;10.65;;;7.05;;
21392;SDS011;10857;52.228;21.026;2022-08-03T10:19:36;10.10;;;7.30;;
21392;SDS011;10857;52.228;21.026;2022-08-03T10:22:26;12.35;;;7.68;;
21392;SDS011;10857;52.228;21.026;2022-08-03T10:27:36;11.48;;;7.78;;
21392;SDS011;10857;52.228;21.026;2022-08-03T10:30:08;9.50;;;7.53;;
21392;SDS011;10857;52.228;21.026;2022-08-03T10:32:55;11.82;;;7.60;;
21392;SDS011;10857;52.228;21.026;2022-08-03T10:35:56;9.15;;;7.50;;
21392;SDS011;10857;52.228;21.026;2022-08-03T10:38:46;10.88;;;8.10;;
21392;SDS011;10857;52.228;21.026;2022-08-03T10:41:19;14.50;;;7.95;;
21392;SDS011;10857;52.228;21.026;2022-08-03T10:46:51;9.82;;;8.20;;
21392;SDS011;10857;52.228;21.026;2022-08-03T10:49:21;15.25;;;7.88;;
21392;SDS011;10857;52.228;21.026;2022-08-03T10:52:00;13.05;;;7.88;;
21392;SDS011;10857;52.228;21.026;2022-08-03T10:54:42;10.65;;;7.72;;
21392;SDS011;10857;52.228;21.026;2022-08-03T10:57:45;12.80;;;8.02;;
21392;SDS011;10857;52.228;21.026;2022-08-03T11:00:25;10.32;;;7.63;;
21392;SDS011;10857;52.228;21.026;2022-08-03T11:03:02;10.48;;;8.57;;
21392;SDS011;10857;52.228;21.026;2022-08-03T11:05:42;10.27;;;8.52;;
21392;SDS011;10857;52.228;21.026;2022-08-03T11:08:25;9.93;;;7.80;;
21392;SDS011;10857;52.228;21.026;2022-08-03T11:10:55;9.88;;;7.90;;
21392;SDS011;10857;52.228;21.026;2022-08-03T11:13:27;11.27;;;7.63;;
21392;SDS011;10857;52.228;21.026;2022-08-03T11:15:59;11.02;;;8.40;;
21392;SDS011;10857;52.228;21.026;2022-08-03T11:18:32;9.52;;;7.88;;
21392;SDS011;10857;52.228;21.026;2022-08-03T11:21:01;10.05;;;7.40;;
21392;SDS011;10857;52.228;21.026;2022-08-03T11:23:40;10.98;;;8.02;;
21392;SDS011;10857;52.228;21.026;2022-08-03T11:26:29;10.13;;;8.07;;
21392;SDS011;10857;52.228;21.026;2022-08-03T11:29:10;16.17;;;9.07;;
21392;SDS011;10857;52.228;21.026;2022-08-03T11:31:53;11.10;;;8.43;;
21392;SDS011;10857;52.228;21.026;2022-08-03T11:34:23;11.70;;;8.90;;
21392;SDS011;10857;52.228;21.026;2022-08-03T11:39:46;12.02;;;8.10;;
21392;SDS011;10857;52.228;21.026;2022-08-03T11:44:51;13.18;;;7.93;;
21392;SDS011;10857;52.228;21.026;2022-08-03T11:47:24;9.90;;;7.85;;
21392;SDS011;10857;52.228;21.026;2022-08-03T11:49:56;9.18;;;7.72;;
21392;SDS011;10857;52.228;21.026;2022-08-03T11:52:36;9.52;;;7.88;;
21392;SDS011;10857;52.228;21.026;2022-08-03T11:55:07;11.48;;;7.75;;
21392;SDS011;10857;52.228;21.026;2022-08-03T11:57:35;9.45;;;7.65;;
21392;SDS011;10857;52.228;21.026;2022-08-03T12:00:27;8.25;;;7.20;;
21392;SDS011;10857;52.228;21.026;2022-08-03T12:08:30;11.00;;;7.43;;
21392;SDS011;10857;52.228;21.026;2022-08-03T12:11:03;9.23;;;8.32;;
21392;SDS011;10857;52.228;21.026;2022-08-03T12:13:48;12.80;;;8.50;;
21392;SDS011;10857;52.228;21.026;2022-08-03T12:16:37;14.00;;;9.20;;
21392;SDS011;10857;52.228;21.026;2022-08-03T12:19:07;14.27;;;8.93;;
21392;SDS011;10857;52.228;21.026;2022-08-03T12:21:44;11.88;;;8.98;;
21392;SDS011;10857;52.228;21.026;2022-08-03T12:24:24;10.77;;;8.65;;
21392;SDS011;10857;52.228;21.026;2022-08-03T12:26:53;11.52;;;8.50;;
21392;SDS011;10857;52.228;21.026;2022-08-03T12:29:25;10.20;;;7.60;;
21392;SDS011;10857;52.228;21.026;2022-08-03T12:31:53;14.20;;;8.20;;
21392;SDS011;10857;52.228;21.026;2022-08-03T12:34:21;10.68;;;8.40;;
21392;SDS011;10857;52.228;21.026;2022-08-03T12:36:52;13.77;;;8.70;;
21392;SDS011;10857;52.228;21.026;2022-08-03T12:39:25;12.55;;;8.48;;
21392;SDS011;10857;52.228;21.026;2022-08-03T12:41:57;9.65;;;8.55;;
21392;SDS011;10857;52.228;21.026;2022-08-03T12:44:33;12.15;;;8.70;;
21392;SDS011;10857;52.228;21.026;2022-08-03T12:47:02;12.38;;;8.35;;
21392;SDS011;10857;52.228;21.026;2022-08-03T12:49:44;10.02;;;8.20;;
21392;SDS011;10857;52.228;21.026;2022-08-03T12:52:15;11.15;;;7.85;;
21392;SDS011;10857;52.228;21.026;2022-08-03T12:54:56;8.00;;;7.25;;
21392;SDS011;10857;52.228;21.026;2022-08-03T12:57:40;8.75;;;7.68;;
21392;SDS011;10857;52.228;21.026;2022-08-03T13:00:09;9.63;;;7.43;;
21392;SDS011;10857;52.228;21.026;2022-08-03T13:03:13;8.60;;;7.68;;
21392;SDS011;10857;52.228;21.026;2022-08-03T13:06:00;8.63;;;7.43;;
21392;SDS011;10857;52.228;21.026;2022-08-03T13:08:28;8.82;;;7.07;;
21392;SDS011;10857;52.228;21.026;2022-08-03T13:10:55;9.45;;;7.35;;
21392;SDS011;10857;52.228;21.026;2022-08-03T13:13:37;8.07;;;7.10;;
21392;SDS011;10857;52.228;21.026;2022-08-03T13:16:25;7.90;;;7.10;;
21392;SDS011;10857;52.228;21.026;2022-08-03T13:19:14;8.63;;;7.30;;
21392;SDS011;10857;52.228;21.026;2022-08-03T13:21:42;7.82;;;7.10;;
21392;SDS011;10857;52.228;21.026;2022-08-03T13:24:30;7.38;;;6.65;;
21392;SDS011;10857;52.228;21.026;2022-08-03T13:26:58;8.93;;;7.10;;
21392;SDS011;10857;52.228;21.026;2022-08-03T13:29:48;12.30;;;6.68;;
21392;SDS011;10857;52.228;21.026;2022-08-03T13:32:17;8.98;;;7.35;;
21392;SDS011;10857;52.228;21.026;2022-08-03T13:34:49;8.38;;;7.40;;
21392;SDS011;10857;52.228;21.026;2022-08-03T13:37:17;9.18;;;7.00;;
21392;SDS011;10857;52.228;21.026;2022-08-03T13:39:44;8.20;;;6.93;;
21392;SDS011;10857;52.228;21.026;2022-08-03T13:42:25;8.80;;;7.47;;
21392;SDS011;10857;52.228;21.026;2022-08-03T13:44:53;8.63;;;7.78;;
21392;SDS011;10857;52.228;21.026;2022-08-03T13:47:21;8.90;;;7.55;;
21392;SDS011;10857;52.228;21.026;2022-08-03T13:49:48;10.32;;;7.75;;
21392;SDS011;10857;52.228;21.026;2022-08-03T13:52:31;7.90;;;7.10;;
21392;SDS011;10857;52.228;21.026;2022-08-03T13:54:59;9.05;;;7.57;;
21392;SDS011;10857;52.228;21.026;2022-08-03T13:57:31;8.27;;;7.47;;
21392;SDS011;10857;52.228;21.026;2022-08-03T14:00:18;10.68;;;7.55;;
21392;SDS011;10857;52.228;21.026;2022-08-03T14:02:57;10.68;;;7.07;;
21392;SDS011;10857;52.228;21.026;2022-08-03T14:05:34;8.00;;;7.22;;
21392;SDS011;10857;52.228;21.026;2022-08-03T14:08:06;9.02;;;7.60;;
21392;SDS011;10857;52.228;21.026;2022-08-03T14:10:36;8.30;;;7.50;;
21392;SDS011;10857;52.228;21.026;2022-08-03T14:13:23;11.18;;;7.07;;
21392;SDS011;10857;52.228;21.026;2022-08-03T14:15:56;8.60;;;7.30;;
21392;SDS011;10857;52.228;21.026;2022-08-03T14:18:26;9.07;;;7.25;;
21392;SDS011;10857;52.228;21.026;2022-08-03T14:20:59;12.73;;;7.32;;
21392;SDS011;10857;52.228;21.026;2022-08-03T14:23:33;9.88;;;7.40;;
21392;SDS011;10857;52.228;21.026;2022-08-03T14:26:10;11.15;;;7.85;;
21392;SDS011;10857;52.228;21.026;2022-08-03T14:28:42;9.52;;;7.80;;
21392;SDS011;10857;52.228;21.026;2022-08-03T14:31:09;10.20;;;7.60;;
21392;SDS011;10857;52.228;21.026;2022-08-03T14:33:57;8.30;;;7.55;;
21392;SDS011;10857;52.228;21.026;2022-08-03T14:36:24;8.18;;;7.20;;
21392;SDS011;10857;52.228;21.026;2022-08-03T14:38:54;9.25;;;7.25;;
21392;SDS011;10857;52.228;21.026;2022-08-03T14:41:27;9.35;;;7.90;;
21392;SDS011;10857;52.228;21.026;2022-08-03T14:43:54;8.80;;;7.85;;
21392;SDS011;10857;52.228;21.026;2022-08-03T14:46:28;9.77;;;7.50;;
21392;SDS011;10857;52.228;21.026;2022-08-03T14:48:56;9.95;;;7.43;;
21392;SDS011;10857;52.228;21.026;2022-08-03T14:51:48;8.48;;;7.60;;
21392;SDS011;10857;52.228;21.026;2022-08-03T14:54:21;8.38;;;7.53;;
21392;SDS011;10857;52.228;21.026;2022-08-03T14:56:50;8.57;;;7.28;;
21392;SDS011;10857;52.228;21.026;2022-08-03T14:59:19;11.18;;;7.15;;
21392;SDS011;10857;52.228;21.026;2022-08-03T15:01:46;9.63;;;7.25;;
21392;SDS011;10857;52.228;21.026;2022-08-03T15:04:32;12.02;;;9.57;;
21392;SDS011;10857;52.228;21.026;2022-08-03T15:07:02;9.50;;;8.27;;
21392;SDS011;10857;52.228;21.026;2022-08-03T15:09:29;11.05;;;8.70;;
21392;SDS011;10857;52.228;21.026;2022-08-03T15:11:57;10.05;;;8.80;;
21392;SDS011;10857;52.228;21.026;2022-08-03T15:14:24;10.20;;;7.88;;
21392;SDS011;10857;52.228;21.026;2022-08-03T15:16:58;9.15;;;8.35;;
21392;SDS011;10857;52.228;21.026;2022-08-03T15:19:27;10.90;;;8.20;;
21392;SDS011;10857;52.228;21.026;2022-08-03T15:22:14;8.60;;;7.57;;
21392;SDS011;10857;52.228;21.026;2022-08-03T15:24:45;11.05;;;8.30;;
21392;SDS011;10857;52.228;21.026;2022-08-03T15:27:13;9.07;;;8.18;;